sensor_id;sensor_type;location;lat;lon;timestamp;temperature;humidity
3067;DHT22;1544;48.834;9.194;2023-03-12T00:01:58;1.30;30.00
3067;DHT22;1544;48.834;9.194;2023-03-12T00:04:33;1.30;30.10
3067;DHT22;1544;48.834;9.194;2023-03-12T00:07:09;1.30;30.00
3067;DHT22;1544;48.834;9.194;2023-03-12T00:09:44;1.20;30.00
3067;DHT22;1544;48.834;9.194;2023-03-12T00:12:19;1.30;30.00
3067;DHT22;1544;48.834;9.194;2023-03-12T00:14:54;1.30;30.00
3067;DHT22;1544;48.834;9.194;2023-03-12T00:17:29;1.20;30.00
3067;DHT22;1544;48.834;9.194;2023-03-12T00:20:04;1.20;30.00
3067;DHT22;1544;48.834;9.194;2023-03-12T00:22:42;1.20;30.00
3067;DHT22;1544;48.834;9.194;2023-03-12T00:25:17;1.20;29.90
3067;DHT22;1544;48.834;9.194;2023-03-12T00:27:54;1.20;29.90
3067;DHT22;1544;48.834;9.194;2023-03-12T00:30:29;1.10;29.90
3067;DHT22;1544;48.834;9.194;2023-03-12T00:33:04;1.10;29.90
3067;DHT22;1544;48.834;9.194;2023-03-12T00:35:39;1.10;29.90
3067;DHT22;1544;48.834;9.194;2023-03-12T00:38:14;1.10;30.00
3067;DHT22;1544;48.834;9.194;2023-03-12T00:40:49;1.10;30.00
3067;DHT22;1544;48.834;9.194;2023-03-12T00:43:23;1.00;30.10
3067;DHT22;1544;48.834;9.194;2023-03-12T00:45:58;1.00;30.40
3067;DHT22;1544;48.834;9.194;2023-03-12T00:48:33;0.90;30.60
3067;DHT22;1544;48.834;9.194;2023-03-12T00:51:10;0.90;30.90
3067;DHT22;1544;48.834;9.194;2023-03-12T00:53:45;0.90;31.10
3067;DHT22;1544;48.834;9.194;2023-03-12T00:56:20;0.90;31.40
3067;DHT22;1544;48.834;9.194;2023-03-12T00:58:55;0.90;31.60
3067;DHT22;1544;48.834;9.194;2023-03-12T01:01:30;0.90;31.80
3067;DHT22;1544;48.834;9.194;2023-03-12T01:04:05;0.90;32.10
3067;DHT22;1544;48.834;9.194;2023-03-12T01:06:40;0.90;32.30
3067;DHT22;1544;48.834;9.194;2023-03-12T01:09:15;0.90;32.40
3067;DHT22;1544;48.834;9.194;2023-03-12T01:11:50;1.00;32.50
3067;DHT22;1544;48.834;9.194;2023-03-12T01:14:25;1.00;32.60
3067;DHT22;1544;48.834;9.194;2023-03-12T01:17:00;1.00;32.70
3067;DHT22;1544;48.834;9.194;2023-03-12T01:19:35;1.00;32.90
3067;DHT22;1544;48.834;9.194;2023-03-12T01:22:10;1.00;33.10
3067;DHT22;1544;48.834;9.194;2023-03-12T01:24:45;1.00;33.30
3067;DHT22;1544;48.834;9.194;2023-03-12T01:27:20;1.00;33.40
3067;DHT22;1544;48.834;9.194;2023-03-12T01:29:55;1.00;33.50
3067;DHT22;1544;48.834;9.194;2023-03-12T01:32:30;1.10;33.70
3067;DHT22;1544;48.834;9.194;2023-03-12T01:35:06;1.10;33.80
3067;DHT22;1544;48.834;9.194;2023-03-12T01:37:41;1.20;33.90
3067;DHT22;1544;48.834;9.194;2023-03-12T01:40:20;1.20;34.00
3067;DHT22;1544;48.834;9.194;2023-03-12T01:43:35;1.20;34.00
3067;DHT22;1544;48.834;9.194;2023-03-12T01:48:58;1.30;34.20
3067;DHT22;1544;48.834;9.194;2023-03-12T01:52:05;1.40;34.30
3067;DHT22;1544;48.834;9.194;2023-03-12T01:55:21;1.40;34.30
3067;DHT22;1544;48.834;9.194;2023-03-12T01:57:57;1.50;34.40
3067;DHT22;1544;48.834;9.194;2023-03-12T02:00:32;1.50;34.40
3067;DHT22;1544;48.834;9.194;2023-03-12T02:03:08;1.60;34.40
3067;DHT22;1544;48.834;9.194;2023-03-12T02:05:52;1.60;34.40
3067;DHT22;1544;48.834;9.194;2023-03-12T02:08:29;1.60;34.40
3067;DHT22;1544;48.834;9.194;2023-03-12T02:11:04;1.60;34.30
3067;DHT22;1544;48.834;9.194;2023-03-12T02:13:39;1.70;34.50
3067;DHT22;1544;48.834;9.194;2023-03-12T02:16:14;1.70;34.40
3067;DHT22;1544;48.834;9.194;2023-03-12T02:18:50;1.70;34.40
3067;DHT22;1544;48.834;9.194;2023-03-12T02:21:29;1.70;34.30
3067;DHT22;1544;48.834;9.194;2023-03-12T02:24:29;1.70;34.40
3067;DHT22;1544;48.834;9.194;2023-03-12T02:27:10;1.70;34.50
3067;DHT22;1544;48.834;9.194;2023-03-12T02:29:46;1.70;34.50
3067;DHT22;1544;48.834;9.194;2023-03-12T02:32:27;1.70;34.50
3067;DHT22;1544;48.834;9.194;2023-03-12T02:35:07;1.70;34.50
3067;DHT22;1544;48.834;9.194;2023-03-12T02:37:54;1.70;34.60
3067;DHT22;1544;48.834;9.194;2023-03-12T02:40:36;1.70;34.60
3067;DHT22;1544;48.834;9.194;2023-03-12T02:43:19;1.70;34.70
3067;DHT22;1544;48.834;9.194;2023-03-12T02:45:55;1.70;35.20
3067;DHT22;1544;48.834;9.194;2023-03-12T02:48:38;1.60;34.80
3067;DHT22;1544;48.834;9.194;2023-03-12T02:51:13;1.60;34.90
3067;DHT22;1544;48.834;9.194;2023-03-12T02:53:48;1.60;35.00
3067;DHT22;1544;48.834;9.194;2023-03-12T02:56:29;1.60;35.00
3067;DHT22;1544;48.834;9.194;2023-03-12T02:59:05;1.60;34.90
3067;DHT22;1544;48.834;9.194;2023-03-12T03:01:45;1.60;34.90
3067;DHT22;1544;48.834;9.194;2023-03-12T03:04:22;1.60;34.90
3067;DHT22;1544;48.834;9.194;2023-03-12T03:06:58;1.60;34.80
3067;DHT22;1544;48.834;9.194;2023-03-12T03:09:33;1.50;34.70
3067;DHT22;1544;48.834;9.194;2023-03-12T03:12:08;1.50;34.70
3067;DHT22;1544;48.834;9.194;2023-03-12T03:14:44;1.50;34.60
3067;DHT22;1544;48.834;9.194;2023-03-12T03:17:19;1.50;34.70
3067;DHT22;1544;48.834;9.194;2023-03-12T03:19:57;1.60;34.70
3067;DHT22;1544;48.834;9.194;2023-03-12T03:22:32;1.60;34.60
3067;DHT22;1544;48.834;9.194;2023-03-12T03:25:08;1.60;34.50
3067;DHT22;1544;48.834;9.194;2023-03-12T03:27:43;1.70;34.70
3067;DHT22;1544;48.834;9.194;2023-03-12T03:30:19;1.70;34.60
3067;DHT22;1544;48.834;9.194;2023-03-12T03:32:57;1.70;34.40
3067;DHT22;1544;48.834;9.194;2023-03-12T03:35:33;1.80;34.50
3067;DHT22;1544;48.834;9.194;2023-03-12T03:38:08;1.80;34.50
3067;DHT22;1544;48.834;9.194;2023-03-12T03:40:43;1.90;34.40
3067;DHT22;1544;48.834;9.194;2023-03-12T03:43:20;1.90;34.20
3067;DHT22;1544;48.834;9.194;2023-03-12T03:46:01;2.00;34.20
3067;DHT22;1544;48.834;9.194;2023-03-12T03:48:41;2.10;34.10
3067;DHT22;1544;48.834;9.194;2023-03-12T03:51:17;2.10;33.90
3067;DHT22;1544;48.834;9.194;2023-03-12T03:53:56;2.20;33.90
3067;DHT22;1544;48.834;9.194;2023-03-12T03:56:34;2.20;33.70
3067;DHT22;1544;48.834;9.194;2023-03-12T03:59:11;2.30;33.70
3067;DHT22;1544;48.834;9.194;2023-03-12T04:01:47;2.30;33.60
3067;DHT22;1544;48.834;9.194;2023-03-12T04:04:22;2.40;33.60
3067;DHT22;1544;48.834;9.194;2023-03-12T04:06:57;2.40;33.50
3067;DHT22;1544;48.834;9.194;2023-03-12T04:09:32;2.40;33.40
3067;DHT22;1544;48.834;9.194;2023-03-12T04:12:07;2.40;33.20
3067;DHT22;1544;48.834;9.194;2023-03-12T04:14:44;2.40;33.20
3067;DHT22;1544;48.834;9.194;2023-03-12T04:17:20;2.40;33.20
3067;DHT22;1544;48.834;9.194;2023-03-12T04:19:55;2.50;33.30
3067;DHT22;1544;48.834;9.194;2023-03-12T04:22:30;2.50;33.20
3067;DHT22;1544;48.834;9.194;2023-03-12T04:25:06;2.50;33.20
3067;DHT22;1544;48.834;9.194;2023-03-12T04:27:42;2.60;33.20
3067;DHT22;1544;48.834;9.194;2023-03-12T04:30:17;2.60;33.10
3067;DHT22;1544;48.834;9.194;2023-03-12T04:32:53;2.60;33.10
3067;DHT22;1544;48.834;9.194;2023-03-12T04:35:28;2.70;33.10
3067;DHT22;1544;48.834;9.194;2023-03-12T04:38:03;2.70;33.00
3067;DHT22;1544;48.834;9.194;2023-03-12T04:40:39;2.80;33.10
3067;DHT22;1544;48.834;9.194;2023-03-12T04:43:14;2.80;33.00
3067;DHT22;1544;48.834;9.194;2023-03-12T04:45:55;2.80;33.00
3067;DHT22;1544;48.834;9.194;2023-03-12T04:48:30;2.90;33.00
3067;DHT22;1544;48.834;9.194;2023-03-12T04:51:05;2.90;32.90
3067;DHT22;1544;48.834;9.194;2023-03-12T04:53:40;2.90;32.70
3067;DHT22;1544;48.834;9.194;2023-03-12T04:56:17;3.00;32.70
3067;DHT22;1544;48.834;9.194;2023-03-12T04:58:53;2.90;32.60
3067;DHT22;1544;48.834;9.194;2023-03-12T05:01:32;3.00;32.60
3067;DHT22;1544;48.834;9.194;2023-03-12T05:04:12;3.00;32.60
3067;DHT22;1544;48.834;9.194;2023-03-12T05:06:47;2.90;32.50
3067;DHT22;1544;48.834;9.194;2023-03-12T05:09:22;3.00;32.50
3067;DHT22;1544;48.834;9.194;2023-03-12T05:11:57;3.00;32.50
3067;DHT22;1544;48.834;9.194;2023-03-12T05:14:32;3.10;32.50
3067;DHT22;1544;48.834;9.194;2023-03-12T05:17:07;3.10;32.30
3067;DHT22;1544;48.834;9.194;2023-03-12T05:19:42;3.10;32.40
3067;DHT22;1544;48.834;9.194;2023-03-12T05:22:17;3.10;32.40
3067;DHT22;1544;48.834;9.194;2023-03-12T05:24:52;3.10;32.30
3067;DHT22;1544;48.834;9.194;2023-03-12T05:27:27;3.10;32.30
3067;DHT22;1544;48.834;9.194;2023-03-12T05:30:06;3.20;32.30
3067;DHT22;1544;48.834;9.194;2023-03-12T05:32:42;3.20;32.30
3067;DHT22;1544;48.834;9.194;2023-03-12T05:35:18;2.40;31.60
3067;DHT22;1544;48.834;9.194;2023-03-12T05:37:53;3.30;32.30
3067;DHT22;1544;48.834;9.194;2023-03-12T05:40:29;3.30;32.30
3067;DHT22;1544;48.834;9.194;2023-03-12T05:43:06;3.30;32.10
3067;DHT22;1544;48.834;9.194;2023-03-12T05:45:41;3.30;32.10
3067;DHT22;1544;48.834;9.194;2023-03-12T05:48:17;3.30;32.00
3067;DHT22;1544;48.834;9.194;2023-03-12T05:50:52;3.30;32.00
3067;DHT22;1544;48.834;9.194;2023-03-12T05:53:27;3.40;32.10
3067;DHT22;1544;48.834;9.194;2023-03-12T05:56:03;3.40;32.10
3067;DHT22;1544;48.834;9.194;2023-03-12T05:58:55;3.40;32.10
3067;DHT22;1544;48.834;9.194;2023-03-12T06:01:31;3.50;32.30
3067;DHT22;1544;48.834;9.194;2023-03-12T06:04:08;3.50;32.30
3067;DHT22;1544;48.834;9.194;2023-03-12T06:06:43;3.50;32.30
3067;DHT22;1544;48.834;9.194;2023-03-12T06:09:19;3.60;32.50
3067;DHT22;1544;48.834;9.194;2023-03-12T06:11:53;3.60;32.90
3067;DHT22;1544;48.834;9.194;2023-03-12T06:14:29;3.60;33.10
3067;DHT22;1544;48.834;9.194;2023-03-12T06:17:08;3.60;33.20
3067;DHT22;1544;48.834;9.194;2023-03-12T06:19:43;3.60;33.40
3067;DHT22;1544;48.834;9.194;2023-03-12T06:22:18;3.70;33.60
3067;DHT22;1544;48.834;9.194;2023-03-12T06:24:55;3.70;33.80
3067;DHT22;1544;48.834;9.194;2023-03-12T06:27:30;3.70;34.00
3067;DHT22;1544;48.834;9.194;2023-03-12T06:30:06;3.70;34.20
3067;DHT22;1544;48.834;9.194;2023-03-12T06:32:41;3.70;34.30
3067;DHT22;1544;48.834;9.194;2023-03-12T06:35:16;3.80;34.60
3067;DHT22;1544;48.834;9.194;2023-03-12T06:37:51;3.80;34.70
3067;DHT22;1544;48.834;9.194;2023-03-12T06:40:26;3.80;35.00
3067;DHT22;1544;48.834;9.194;2023-03-12T06:43:01;3.80;35.30
3067;DHT22;1544;48.834;9.194;2023-03-12T06:45:36;3.90;35.60
3067;DHT22;1544;48.834;9.194;2023-03-12T06:48:11;3.90;35.70
3067;DHT22;1544;48.834;9.194;2023-03-12T06:50:46;3.90;35.80
3067;DHT22;1544;48.834;9.194;2023-03-12T06:53:21;3.90;36.10
3067;DHT22;1544;48.834;9.194;2023-03-12T06:55:57;3.90;36.60
3067;DHT22;1544;48.834;9.194;2023-03-12T06:58:32;3.90;37.00
3067;DHT22;1544;48.834;9.194;2023-03-12T07:01:07;4.00;37.20
3067;DHT22;1544;48.834;9.194;2023-03-12T07:03:42;4.00;37.60
3067;DHT22;1544;48.834;9.194;2023-03-12T07:06:19;4.10;37.90
3067;DHT22;1544;48.834;9.194;2023-03-12T07:08:55;4.10;38.10
3067;DHT22;1544;48.834;9.194;2023-03-12T07:11:30;4.20;38.30
3067;DHT22;1544;48.834;9.194;2023-03-12T07:14:10;4.20;38.60
3067;DHT22;1544;48.834;9.194;2023-03-12T07:16:46;4.30;38.70
3067;DHT22;1544;48.834;9.194;2023-03-12T07:19:21;4.40;39.10
3067;DHT22;1544;48.834;9.194;2023-03-12T07:21:56;4.40;39.10
3067;DHT22;1544;48.834;9.194;2023-03-12T07:24:31;4.50;39.30
3067;DHT22;1544;48.834;9.194;2023-03-12T07:27:06;4.50;39.40
3067;DHT22;1544;48.834;9.194;2023-03-12T07:29:42;4.50;39.80
3067;DHT22;1544;48.834;9.194;2023-03-12T07:32:17;4.60;40.20
3067;DHT22;1544;48.834;9.194;2023-03-12T07:34:52;4.70;40.40
3067;DHT22;1544;48.834;9.194;2023-03-12T07:37:27;4.80;40.50
3067;DHT22;1544;48.834;9.194;2023-03-12T07:40:03;4.80;40.50
3067;DHT22;1544;48.834;9.194;2023-03-12T07:42:41;4.90;40.50
3067;DHT22;1544;48.834;9.194;2023-03-12T07:45:16;5.00;40.60
3067;DHT22;1544;48.834;9.194;2023-03-12T07:47:52;5.10;40.80
3067;DHT22;1544;48.834;9.194;2023-03-12T07:50:27;5.10;40.90
3067;DHT22;1544;48.834;9.194;2023-03-12T07:53:03;5.20;41.10
3067;DHT22;1544;48.834;9.194;2023-03-12T07:55:38;5.40;41.10
3067;DHT22;1544;48.834;9.194;2023-03-12T07:58:16;5.50;41.00
3067;DHT22;1544;48.834;9.194;2023-03-12T08:00:54;5.60;40.90
3067;DHT22;1544;48.834;9.194;2023-03-12T08:03:29;5.60;40.50
3067;DHT22;1544;48.834;9.194;2023-03-12T08:06:05;5.70;40.70
3067;DHT22;1544;48.834;9.194;2023-03-12T08:08:40;5.80;40.70
3067;DHT22;1544;48.834;9.194;2023-03-12T08:11:16;5.90;40.50
3067;DHT22;1544;48.834;9.194;2023-03-12T08:13:51;5.90;40.60
3067;DHT22;1544;48.834;9.194;2023-03-12T08:16:26;6.00;40.30
3067;DHT22;1544;48.834;9.194;2023-03-12T08:19:01;6.00;40.10
3067;DHT22;1544;48.834;9.194;2023-03-12T08:21:36;6.10;40.00
3067;DHT22;1544;48.834;9.194;2023-03-12T08:24:11;6.10;39.60
3067;DHT22;1544;48.834;9.194;2023-03-12T08:26:46;6.60;39.60
3067;DHT22;1544;48.834;9.194;2023-03-12T08:29:21;6.10;39.30
3067;DHT22;1544;48.834;9.194;2023-03-12T08:31:56;6.20;39.30
3067;DHT22;1544;48.834;9.194;2023-03-12T08:34:39;6.30;39.10
3067;DHT22;1544;48.834;9.194;2023-03-12T08:37:14;6.30;39.00
3067;DHT22;1544;48.834;9.194;2023-03-12T08:39:49;6.40;39.10
3067;DHT22;1544;48.834;9.194;2023-03-12T08:42:24;6.40;38.90
3067;DHT22;1544;48.834;9.194;2023-03-12T08:44:59;6.50;39.00
3067;DHT22;1544;48.834;9.194;2023-03-12T08:47:34;6.60;39.00
3067;DHT22;1544;48.834;9.194;2023-03-12T08:50:12;6.70;39.10
3067;DHT22;1544;48.834;9.194;2023-03-12T08:52:48;6.80;39.00
3067;DHT22;1544;48.834;9.194;2023-03-12T08:55:24;6.90;38.80
3067;DHT22;1544;48.834;9.194;2023-03-12T08:58:01;7.00;38.80
3067;DHT22;1544;48.834;9.194;2023-03-12T09:00:36;7.00;38.70
3067;DHT22;1544;48.834;9.194;2023-03-12T09:03:11;7.20;38.70
3067;DHT22;1544;48.834;9.194;2023-03-12T09:05:48;7.30;38.50
3067;DHT22;1544;48.834;9.194;2023-03-12T09:08:24;7.40;38.30
3067;DHT22;1544;48.834;9.194;2023-03-12T09:11:01;7.50;38.30
3067;DHT22;1544;48.834;9.194;2023-03-12T09:13:38;7.50;38.10
3067;DHT22;1544;48.834;9.194;2023-03-12T09:16:34;7.60;38.10
3067;DHT22;1544;48.834;9.194;2023-03-12T09:19:09;7.60;38.10
3067;DHT22;1544;48.834;9.194;2023-03-12T09:21:44;7.70;38.10
3067;DHT22;1544;48.834;9.194;2023-03-12T09:24:20;7.80;38.30
3067;DHT22;1544;48.834;9.194;2023-03-12T09:26:58;7.90;38.40
3067;DHT22;1544;48.834;9.194;2023-03-12T09:29:33;8.10;38.60
3067;DHT22;1544;48.834;9.194;2023-03-12T09:32:20;8.30;38.50
3067;DHT22;1544;48.834;9.194;2023-03-12T09:34:55;8.50;38.30
3067;DHT22;1544;48.834;9.194;2023-03-12T09:37:34;8.60;38.40
3067;DHT22;1544;48.834;9.194;2023-03-12T09:40:19;8.70;37.80
3067;DHT22;1544;48.834;9.194;2023-03-12T09:45:58;8.90;37.90
3067;DHT22;1544;48.834;9.194;2023-03-12T09:48:35;8.70;37.60
3067;DHT22;1544;48.834;9.194;2023-03-12T09:51:19;9.10;37.90
3067;DHT22;1544;48.834;9.194;2023-03-12T09:54:03;9.20;37.70
3067;DHT22;1544;48.834;9.194;2023-03-12T09:56:41;9.20;37.60
3067;DHT22;1544;48.834;9.194;2023-03-12T09:59:17;9.40;37.70
3067;DHT22;1544;48.834;9.194;2023-03-12T10:01:56;9.50;37.80
3067;DHT22;1544;48.834;9.194;2023-03-12T10:08:33;9.70;37.80
3067;DHT22;1544;48.834;9.194;2023-03-12T10:14:36;10.10;37.40
3067;DHT22;1544;48.834;9.194;2023-03-12T10:20:48;10.80;37.70
3067;DHT22;1544;48.834;9.194;2023-03-12T10:23:52;11.00;37.50
3067;DHT22;1544;48.834;9.194;2023-03-12T10:26:46;11.20;37.50
3067;DHT22;1544;48.834;9.194;2023-03-12T10:29:35;11.50;37.30
3067;DHT22;1544;48.834;9.194;2023-03-12T10:32:21;11.70;36.90
3067;DHT22;1544;48.834;9.194;2023-03-12T10:35:22;11.80;36.50
3067;DHT22;1544;48.834;9.194;2023-03-12T10:38:03;12.00;36.40
3067;DHT22;1544;48.834;9.194;2023-03-12T10:40:39;12.00;36.40
3067;DHT22;1544;48.834;9.194;2023-03-12T10:43:14;11.90;36.10
3067;DHT22;1544;48.834;9.194;2023-03-12T10:49:22;11.80;36.20
3067;DHT22;1544;48.834;9.194;2023-03-12T10:52:05;11.60;36.10
3067;DHT22;1544;48.834;9.194;2023-03-12T10:54:43;11.50;36.20
3067;DHT22;1544;48.834;9.194;2023-03-12T10:57:38;11.30;36.40
3067;DHT22;1544;48.834;9.194;2023-03-12T11:00:23;11.30;36.60
3067;DHT22;1544;48.834;9.194;2023-03-12T11:03:04;11.20;37.00
3067;DHT22;1544;48.834;9.194;2023-03-12T11:05:49;11.10;37.50
3067;DHT22;1544;48.834;9.194;2023-03-12T11:08:35;11.00;38.70
3067;DHT22;1544;48.834;9.194;2023-03-12T11:11:10;10.90;40.90
3067;DHT22;1544;48.834;9.194;2023-03-12T11:13:45;11.00;43.50
3067;DHT22;1544;48.834;9.194;2023-03-12T11:16:25;11.10;45.40
3067;DHT22;1544;48.834;9.194;2023-03-12T11:19:05;11.20;47.80
3067;DHT22;1544;48.834;9.194;2023-03-12T11:22:03;11.40;49.00
3067;DHT22;1544;48.834;9.194;2023-03-12T11:24:56;11.60;49.60
3067;DHT22;1544;48.834;9.194;2023-03-12T11:27:48;11.90;48.50
3067;DHT22;1544;48.834;9.194;2023-03-12T11:30:38;12.20;47.20
3067;DHT22;1544;48.834;9.194;2023-03-12T11:33:14;12.40;46.10
3067;DHT22;1544;48.834;9.194;2023-03-12T11:39:09;12.70;45.30
3067;DHT22;1544;48.834;9.194;2023-03-12T11:49:03;13.00;43.00
3067;DHT22;1544;48.834;9.194;2023-03-12T11:52:00;13.10;42.80
3067;DHT22;1544;48.834;9.194;2023-03-12T12:07:04;12.90;42.00
3067;DHT22;1544;48.834;9.194;2023-03-12T12:09:59;12.80;41.90
3067;DHT22;1544;48.834;9.194;2023-03-12T12:15:57;12.80;41.30
3067;DHT22;1544;48.834;9.194;2023-03-12T12:19:00;12.90;41.80
3067;DHT22;1544;48.834;9.194;2023-03-12T12:25:14;13.50;39.90
3067;DHT22;1544;48.834;9.194;2023-03-12T12:28:43;13.60;40.10
3067;DHT22;1544;48.834;9.194;2023-03-12T12:31:29;13.70;39.40
3067;DHT22;1544;48.834;9.194;2023-03-12T12:37:22;14.10;38.80
3067;DHT22;1544;48.834;9.194;2023-03-12T12:43:30;14.20;37.50
3067;DHT22;1544;48.834;9.194;2023-03-12T12:46:17;14.20;37.80
3067;DHT22;1544;48.834;9.194;2023-03-12T12:48:56;14.20;37.50
3067;DHT22;1544;48.834;9.194;2023-03-12T12:51:47;14.30;37.10
3067;DHT22;1544;48.834;9.194;2023-03-12T12:57:38;14.10;37.10
3067;DHT22;1544;48.834;9.194;2023-03-12T13:03:33;14.10;36.80
3067;DHT22;1544;48.834;9.194;2023-03-12T13:06:10;14.10;36.90
3067;DHT22;1544;48.834;9.194;2023-03-12T13:11:26;14.00;36.90
3067;DHT22;1544;48.834;9.194;2023-03-12T13:16:40;13.80;36.80
3067;DHT22;1544;48.834;9.194;2023-03-12T13:19:23;13.70;36.80
3067;DHT22;1544;48.834;9.194;2023-03-12T13:25:20;13.20;41.00
3067;DHT22;1544;48.834;9.194;2023-03-12T13:34:28;13.30;43.90
3067;DHT22;1544;48.834;9.194;2023-03-12T13:37:18;13.70;41.60
3067;DHT22;1544;48.834;9.194;2023-03-12T13:40:00;13.90;40.70
3067;DHT22;1544;48.834;9.194;2023-03-12T13:42:39;14.00;38.70
3067;DHT22;1544;48.834;9.194;2023-03-12T13:45:24;14.10;37.60
3067;DHT22;1544;48.834;9.194;2023-03-12T13:48:01;13.90;37.20
3067;DHT22;1544;48.834;9.194;2023-03-12T13:50:49;14.00;36.00
3067;DHT22;1544;48.834;9.194;2023-03-12T13:53:32;14.00;35.70
3067;DHT22;1544;48.834;9.194;2023-03-12T13:56:11;13.90;35.60
3067;DHT22;1544;48.834;9.194;2023-03-12T13:58:55;13.90;35.20
3067;DHT22;1544;48.834;9.194;2023-03-12T14:01:39;14.10;35.00
3067;DHT22;1544;48.834;9.194;2023-03-12T14:04:22;14.30;34.90
3067;DHT22;1544;48.834;9.194;2023-03-12T14:07:44;14.30;34.40
3067;DHT22;1544;48.834;9.194;2023-03-12T14:10:33;14.20;34.40
3067;DHT22;1544;48.834;9.194;2023-03-12T14:16:48;14.10;34.70
3067;DHT22;1544;48.834;9.194;2023-03-12T14:19:31;14.10;35.10
3067;DHT22;1544;48.834;9.194;2023-03-12T14:22:10;13.70;34.90
3067;DHT22;1544;48.834;9.194;2023-03-12T14:24:58;13.70;35.70
3067;DHT22;1544;48.834;9.194;2023-03-12T14:27:38;13.60;37.00
3067;DHT22;1544;48.834;9.194;2023-03-12T14:30:28;13.40;39.50
3067;DHT22;1544;48.834;9.194;2023-03-12T14:33:11;13.20;41.50
3067;DHT22;1544;48.834;9.194;2023-03-12T14:35:52;13.10;42.60
3067;DHT22;1544;48.834;9.194;2023-03-12T14:38:38;13.10;40.70
3067;DHT22;1544;48.834;9.194;2023-03-12T14:41:24;13.30;41.60
3067;DHT22;1544;48.834;9.194;2023-03-12T14:44:24;13.50;40.10
3067;DHT22;1544;48.834;9.194;2023-03-12T14:47:03;13.70;40.50
3067;DHT22;1544;48.834;9.194;2023-03-12T14:49:46;13.90;38.50
3067;DHT22;1544;48.834;9.194;2023-03-12T14:52:26;14.10;38.40
3067;DHT22;1544;48.834;9.194;2023-03-12T14:55:30;14.40;36.90
3067;DHT22;1544;48.834;9.194;2023-03-12T14:58:18;14.70;37.20
3067;DHT22;1544;48.834;9.194;2023-03-12T15:01:04;14.90;36.70
3067;DHT22;1544;48.834;9.194;2023-03-12T15:03:45;15.20;35.30
3067;DHT22;1544;48.834;9.194;2023-03-12T15:06:33;15.30;34.90
3067;DHT22;1544;48.834;9.194;2023-03-12T15:09:16;15.40;34.90
3067;DHT22;1544;48.834;9.194;2023-03-12T15:11:55;15.80;35.30
3067;DHT22;1544;48.834;9.194;2023-03-12T15:14:36;16.10;33.40
3067;DHT22;1544;48.834;9.194;2023-03-12T15:17:16;16.20;33.80
3067;DHT22;1544;48.834;9.194;2023-03-12T15:19:53;16.20;32.70
3067;DHT22;1544;48.834;9.194;2023-03-12T15:22:28;16.30;32.60
3067;DHT22;1544;48.834;9.194;2023-03-12T15:30:45;15.90;31.40
3067;DHT22;1544;48.834;9.194;2023-03-12T15:42:10;15.30;31.00
3067;DHT22;1544;48.834;9.194;2023-03-12T15:44:54;15.10;30.80
3067;DHT22;1544;48.834;9.194;2023-03-12T15:47:32;14.80;31.70
3067;DHT22;1544;48.834;9.194;2023-03-12T15:50:30;14.60;31.40
3067;DHT22;1544;48.834;9.194;2023-03-12T16:01:53;14.20;31.90
3067;DHT22;1544;48.834;9.194;2023-03-12T16:04:31;14.10;31.90
3067;DHT22;1544;48.834;9.194;2023-03-12T16:07:10;14.10;32.20
3067;DHT22;1544;48.834;9.194;2023-03-12T16:09:50;14.00;32.10
3067;DHT22;1544;48.834;9.194;2023-03-12T16:12:31;14.00;32.00
3067;DHT22;1544;48.834;9.194;2023-03-12T16:15:15;14.00;32.20
3067;DHT22;1544;48.834;9.194;2023-03-12T16:17:53;13.90;32.40
3067;DHT22;1544;48.834;9.194;2023-03-12T16:20:29;13.90;32.50
3067;DHT22;1544;48.834;9.194;2023-03-12T16:23:04;15.10;33.40
3067;DHT22;1544;48.834;9.194;2023-03-12T16:25:46;14.00;32.50
3067;DHT22;1544;48.834;9.194;2023-03-12T16:28:25;14.00;32.60
3067;DHT22;1544;48.834;9.194;2023-03-12T16:31:12;14.00;32.20
3067;DHT22;1544;48.834;9.194;2023-03-12T16:33:49;13.90;32.50
3067;DHT22;1544;48.834;9.194;2023-03-12T16:36:25;13.90;32.80
3067;DHT22;1544;48.834;9.194;2023-03-12T16:39:07;13.70;32.40
3067;DHT22;1544;48.834;9.194;2023-03-12T16:41:47;13.70;32.50
3067;DHT22;1544;48.834;9.194;2023-03-12T16:44:28;13.70;32.50
3067;DHT22;1544;48.834;9.194;2023-03-12T16:47:12;13.70;32.60
3067;DHT22;1544;48.834;9.194;2023-03-12T16:49:48;13.70;32.40
3067;DHT22;1544;48.834;9.194;2023-03-12T16:52:23;13.70;32.00
3067;DHT22;1544;48.834;9.194;2023-03-12T16:55:01;13.60;32.10
3067;DHT22;1544;48.834;9.194;2023-03-12T16:57:43;13.50;32.10
3067;DHT22;1544;48.834;9.194;2023-03-12T17:00:24;13.50;32.10
3067;DHT22;1544;48.834;9.194;2023-03-12T17:03:03;13.50;32.20
3067;DHT22;1544;48.834;9.194;2023-03-12T17:05:41;13.60;32.70
3067;DHT22;1544;48.834;9.194;2023-03-12T17:08:18;13.50;32.00
3067;DHT22;1544;48.834;9.194;2023-03-12T17:10:54;13.50;31.80
3067;DHT22;1544;48.834;9.194;2023-03-12T17:13:31;13.40;31.90
3067;DHT22;1544;48.834;9.194;2023-03-12T17:16:06;13.40;31.90
3067;DHT22;1544;48.834;9.194;2023-03-12T17:18:41;13.70;32.10
3067;DHT22;1544;48.834;9.194;2023-03-12T17:21:18;13.30;32.00
3067;DHT22;1544;48.834;9.194;2023-03-12T17:23:54;13.20;32.10
3067;DHT22;1544;48.834;9.194;2023-03-12T17:26:29;13.10;32.50
3067;DHT22;1544;48.834;9.194;2023-03-12T17:29:05;13.10;32.10
3067;DHT22;1544;48.834;9.194;2023-03-12T17:31:41;12.50;31.70
3067;DHT22;1544;48.834;9.194;2023-03-12T17:34:17;13.00;32.50
3067;DHT22;1544;48.834;9.194;2023-03-12T17:36:56;12.90;32.40
3067;DHT22;1544;48.834;9.194;2023-03-12T17:39:34;12.80;32.50
3067;DHT22;1544;48.834;9.194;2023-03-12T17:42:15;12.70;32.40
3067;DHT22;1544;48.834;9.194;2023-03-12T17:44:53;12.70;32.40
3067;DHT22;1544;48.834;9.194;2023-03-12T17:47:28;12.60;32.40
3067;DHT22;1544;48.834;9.194;2023-03-12T17:50:05;12.60;32.90
3067;DHT22;1544;48.834;9.194;2023-03-12T17:52:41;12.60;32.60
3067;DHT22;1544;48.834;9.194;2023-03-12T17:55:19;12.50;32.60
3067;DHT22;1544;48.834;9.194;2023-03-12T17:58:22;12.60;32.80
3067;DHT22;1544;48.834;9.194;2023-03-12T18:00:59;12.50;32.60
3067;DHT22;1544;48.834;9.194;2023-03-12T18:03:35;12.60;32.70
3067;DHT22;1544;48.834;9.194;2023-03-12T18:06:11;12.60;32.70
3067;DHT22;1544;48.834;9.194;2023-03-12T18:08:46;12.60;32.70
3067;DHT22;1544;48.834;9.194;2023-03-12T18:11:21;12.50;32.60
3067;DHT22;1544;48.834;9.194;2023-03-12T18:14:06;12.50;32.70
3067;DHT22;1544;48.834;9.194;2023-03-12T18:16:41;12.40;32.80
3067;DHT22;1544;48.834;9.194;2023-03-12T18:19:16;12.40;32.70
3067;DHT22;1544;48.834;9.194;2023-03-12T18:21:53;12.40;32.90
3067;DHT22;1544;48.834;9.194;2023-03-12T18:24:32;12.40;32.80
3067;DHT22;1544;48.834;9.194;2023-03-12T18:27:08;12.40;32.70
3067;DHT22;1544;48.834;9.194;2023-03-12T18:29:43;12.40;32.70
3067;DHT22;1544;48.834;9.194;2023-03-12T18:32:18;12.40;32.70
3067;DHT22;1544;48.834;9.194;2023-03-12T18:34:57;12.40;32.80
3067;DHT22;1544;48.834;9.194;2023-03-12T18:37:34;12.80;33.10
3067;DHT22;1544;48.834;9.194;2023-03-12T18:40:09;12.40;32.90
3067;DHT22;1544;48.834;9.194;2023-03-12T18:42:45;12.40;32.90
3067;DHT22;1544;48.834;9.194;2023-03-12T18:45:20;12.50;33.00
3067;DHT22;1544;48.834;9.194;2023-03-12T18:47:56;12.50;33.00
3067;DHT22;1544;48.834;9.194;2023-03-12T18:50:31;12.50;32.80
3067;DHT22;1544;48.834;9.194;2023-03-12T18:53:06;12.50;32.80
3067;DHT22;1544;48.834;9.194;2023-03-12T18:55:57;12.50;32.80
3067;DHT22;1544;48.834;9.194;2023-03-12T18:58:33;12.60;32.90
3067;DHT22;1544;48.834;9.194;2023-03-12T19:01:08;12.60;32.70
3067;DHT22;1544;48.834;9.194;2023-03-12T19:03:47;12.60;33.20
3067;DHT22;1544;48.834;9.194;2023-03-12T19:06:45;12.70;32.90
3067;DHT22;1544;48.834;9.194;2023-03-12T19:09:39;10.60;31.10
3067;DHT22;1544;48.834;9.194;2023-03-12T19:12:19;12.60;33.00
3067;DHT22;1544;48.834;9.194;2023-03-12T19:15:00;12.40;33.00